Time;durP1;ratioP1;P1;durP2;ratioP2;P2;SDS_P1;SDS_P2;PMS_P1;PMS_P2;Temp;Humidity;BMP_temperature;BMP_pressure;BME280_temperature;BME280_humidity;BME280_pressure;Samples;Min_cycle;Max_cycle;Signal;HPM_P1;HPM_P2
2021/05/09 00:00:49;;;;;;;6.00;5.50;;;;;;;;;;5027216;28;20387;-85
2021/05/09 00:03:15;;;;;;;5.83;5.33;;;;;;;;;;5035242;28;20433;-83
2021/05/09 00:05:41;;;;;;;5.30;4.80;;;;;;;;;;5033923;28;20414;-84
2021/05/09 00:08:08;;;;;;;6.77;5.20;;;;;;;;;;5035081;28;20468;-83
2021/05/09 00:10:34;;;;;;;6.00;5.23;;;;;;;;;;5033224;28;20457;-82
2021/05/09 00:13:00;;;;;;;5.10;4.60;;;;;;;;;;5029343;28;20409;-85
2021/05/09 00:15:26;;;;;;;5.20;4.60;;;;;;;;;;5023569;28;20422;-85
2021/05/09 00:17:53;;;;;;;5.70;5.20;;;;;;;;;;5024195;28;20423;-84
2021/05/09 00:20:20;;;;;;;5.93;5.33;;;;;;;;;;5028912;28;20788;-83
2021/05/09 00:22:46;;;;;;;5.07;4.70;;;;;;;;;;5008916;28;20419;-83
2021/05/09 00:25:12;;;;;;;6.00;5.37;;;;;;;;;;5022358;28;20442;-81
2021/05/09 00:27:40;;;;;;;5.60;5.17;;;;;;;;;;5022695;28;20462;-83
2021/05/09 00:30:06;;;;;;;6.27;5.40;;;;;;;;;;5022355;28;20482;-84
2021/05/09 00:32:33;;;;;;;7.00;5.00;;;;;;;;;;5021324;28;20426;-83
2021/05/09 00:34:59;;;;;;;5.23;4.73;;;;;;;;;;5022774;28;20915;-84
2021/05/09 00:37:25;;;;;;;5.90;5.40;;;;;;;;;;5025527;28;20394;-83
2021/05/09 00:39:52;;;;;;;6.80;5.00;;;;;;;;;;5024618;28;20422;-82
2021/05/09 00:42:18;;;;;;;5.10;4.70;;;;;;;;;;5020848;28;20411;-86
2021/05/09 00:44:44;;;;;;;4.80;4.40;;;;;;;;;;5035084;28;20453;-85
2021/05/09 00:47:15;;;;;;;5.60;5.17;;;;;;;;;;5033680;28;20852;-84
2021/05/09 00:49:42;;;;;;;9.50;8.63;;;;;;;;;;5008912;28;20406;-83
2021/05/09 00:52:09;;;;;;;8.80;4.87;;;;;;;;;;5024742;28;20399;-85
2021/05/09 00:54:37;;;;;;;5.60;5.10;;;;;;;;;;5024711;28;20477;-83
2021/05/09 00:57:04;;;;;;;5.30;4.90;;;;;;;;;;5023655;28;20419;-86
2021/05/09 00:59:30;;;;;;;5.83;5.33;;;;;;;;;;5024524;28;20415;-85
2021/05/09 01:01:58;;;;;;;4.83;4.43;;;;;;;;;;5025471;28;20782;-84
2021/05/09 01:04:25;;;;;;;5.70;5.20;;;;;;;;;;5022488;28;20439;-84
2021/05/09 01:06:53;;;;;;;9.43;7.57;;;;;;;;;;5025252;28;20455;-86
2021/05/09 01:09:19;;;;;;;6.27;5.67;;;;;;;;;;5007906;28;20415;-85
2021/05/09 01:11:50;;;;;;;4.70;4.30;;;;;;;;;;5024900;28;20426;-85
2021/05/09 01:14:16;;;;;;;4.50;4.13;;;;;;;;;;5026877;28;20442;-85
2021/05/09 01:16:45;;;;;;;4.50;4.20;;;;;;;;;;5026823;28;20422;-85
2021/05/09 01:19:27;;;;;;;4.90;4.30;;;;;;;;;;5029407;28;20411;-87
2021/05/09 01:22:04;;;;;;;5.67;4.80;;;;;;;;;;5033204;28;20917;-86
2021/05/09 01:24:30;;;;;;;8.33;6.83;;;;;;;;;;5028190;28;20434;-85
2021/05/09 01:26:56;;;;;;;5.60;5.20;;;;;;;;;;5029523;28;20457;-85
2021/05/09 01:29:23;;;;;;;5.53;5.00;;;;;;;;;;5012648;28;20415;-85
2021/05/09 01:31:51;;;;;;;9.30;5.13;;;;;;;;;;5029874;28;20411;-83
2021/05/09 01:34:18;;;;;;;4.83;4.33;;;;;;;;;;5033379;28;20473;-82
2021/05/09 01:36:44;;;;;;;5.10;4.80;;;;;;;;;;5016983;28;20443;-84
2021/05/09 01:39:10;;;;;;;5.60;5.10;;;;;;;;;;5036213;28;20410;-84
2021/05/09 01:41:36;;;;;;;5.33;4.93;;;;;;;;;;5036994;28;20410;-84
2021/05/09 01:44:03;;;;;;;6.07;5.47;;;;;;;;;;5035611;28;20442;-83
2021/05/09 01:46:29;;;;;;;4.63;4.23;;;;;;;;;;5030630;28;20489;-85
2021/05/09 01:48:56;;;;;;;4.97;4.57;;;;;;;;;;5026616;28;20442;-85
2021/05/09 01:51:25;;;;;;;4.83;4.53;;;;;;;;;;5011976;28;20410;-84
2021/05/09 01:53:52;;;;;;;5.50;5.00;;;;;;;;;;5028045;28;20438;-85
2021/05/09 01:56:28;;;;;;;4.73;4.33;;;;;;;;;;5011791;28;20411;-86
2021/05/09 01:58:54;;;;;;;6.77;5.83;;;;;;;;;;5028470;28;20402;-84
2021/05/09 02:01:26;;;;;;;8.37;4.60;;;;;;;;;;5028616;28;20422;-85
2021/05/09 02:04:04;;;;;;;5.60;5.10;;;;;;;;;;5028405;28;20795;-85
2021/05/09 02:06:33;;;;;;;5.13;3.90;;;;;;;;;;5026913;28;20538;-85
2021/05/09 02:09:00;;;;;;;4.80;4.40;;;;;;;;;;5030455;28;20496;-85
2021/05/09 02:11:36;;;;;;;7.80;5.60;;;;;;;;;;5027299;28;20391;-85
2021/05/09 02:14:08;;;;;;;5.40;5.00;;;;;;;;;;5029119;28;20442;-84
2021/05/09 02:16:36;;;;;;;4.87;4.53;;;;;;;;;;5031929;28;20414;-84
2021/05/09 02:19:04;;;;;;;5.00;4.50;;;;;;;;;;5027143;28;20411;-83
2021/05/09 02:21:42;;;;;;;5.20;4.80;;;;;;;;;;5021945;28;20457;-84
2021/05/09 02:24:08;;;;;;;5.37;4.60;;;;;;;;;;5023379;28;20501;-84
2021/05/09 02:26:38;;;;;;;4.80;4.40;;;;;;;;;;5033976;28;20463;-83
2021/05/09 02:29:06;;;;;;;4.53;4.17;;;;;;;;;;5037449;28;20403;-85
2021/05/09 02:31:33;;;;;;;4.47;4.27;;;;;;;;;;5028093;28;20827;-84
2021/05/09 02:33:59;;;;;;;5.50;4.80;;;;;;;;;;5011577;28;20459;-85
2021/05/09 02:36:25;;;;;;;5.13;4.77;;;;;;;;;;5031612;28;20427;-85
2021/05/09 02:38:52;;;;;;;5.57;4.80;;;;;;;;;;5026353;28;20411;-85
2021/05/09 02:41:20;;;;;;;6.07;5.67;;;;;;;;;;5025221;28;20411;-84
2021/05/09 02:43:46;;;;;;;4.17;3.87;;;;;;;;;;5010045;28;20437;-85
2021/05/09 02:46:12;;;;;;;6.10;5.60;;;;;;;;;;5025225;28;20419;-85
2021/05/09 02:48:39;;;;;;;5.23;4.73;;;;;;;;;;5026300;28;20410;-85
2021/05/09 02:51:06;;;;;;;4.93;4.53;;;;;;;;;;5025327;28;20406;-83
2021/05/09 02:53:32;;;;;;;5.70;5.07;;;;;;;;;;5010253;28;20443;-85
2021/05/09 02:55:58;;;;;;;4.60;4.20;;;;;;;;;;5011171;28;20478;-85
2021/05/09 02:58:24;;;;;;;5.10;4.70;;;;;;;;;;5010458;28;20465;-84
2021/05/09 03:00:50;;;;;;;6.03;5.43;;;;;;;;;;5026505;28;20426;-84
2021/05/09 03:03:18;;;;;;;5.03;4.63;;;;;;;;;;5027222;28;20494;-85
2021/05/09 03:05:45;;;;;;;4.90;4.50;;;;;;;;;;5026264;28;20442;-85
2021/05/09 03:08:12;;;;;;;4.83;4.43;;;;;;;;;;5026052;28;20477;-85
2021/05/09 03:10:41;;;;;;;4.50;4.20;;;;;;;;;;5026906;28;20804;-85
2021/05/09 03:13:08;;;;;;;5.47;4.97;;;;;;;;;;5026158;28;20418;-85
2021/05/09 03:15:34;;;;;;;5.63;5.13;;;;;;;;;;5011973;28;20414;-86
2021/05/09 03:18:00;;;;;;;6.03;5.33;;;;;;;;;;5036377;28;20423;-83
2021/05/09 03:20:26;;;;;;;5.30;4.87;;;;;;;;;;5035794;28;20810;-82
2021/05/09 03:22:55;;;;;;;5.07;4.60;;;;;;;;;;5030858;28;20417;-85
2021/05/09 03:25:21;;;;;;;4.83;4.43;;;;;;;;;;5028607;28;20420;-85
2021/05/09 03:27:47;;;;;;;5.37;5.00;;;;;;;;;;5025865;28;20455;-85
2021/05/09 03:30:14;;;;;;;4.97;4.57;;;;;;;;;;5024761;28;20407;-84
2021/05/09 03:32:40;;;;;;;5.33;4.93;;;;;;;;;;5024147;28;20411;-85
2021/05/09 03:35:10;;;;;;;4.00;3.70;;;;;;;;;;5025018;28;20430;-84
2021/05/09 03:37:36;;;;;;;5.00;4.60;;;;;;;;;;5027427;28;20442;-84
2021/05/09 03:40:04;;;;;;;4.70;4.40;;;;;;;;;;5028368;28;20407;-85
2021/05/09 03:42:30;;;;;;;5.53;5.03;;;;;;;;;;5028343;28;20414;-85
2021/05/09 03:44:56;;;;;;;5.60;4.73;;;;;;;;;;5010331;28;20438;-85
2021/05/09 03:47:26;;;;;;;6.60;6.10;;;;;;;;;;5027040;28;20482;-84
2021/05/09 03:49:53;;;;;;;6.03;5.47;;;;;;;;;;5023546;28;20446;-83
2021/05/09 03:52:21;;;;;;;5.37;4.87;;;;;;;;;;5023986;28;20402;-84
2021/05/09 03:54:51;;;;;;;16.83;15.03;;;;;;;;;;5053840;23;20691;-84
2021/05/09 03:57:20;;;;;;;58.83;52.73;;;;;;;;;;5027142;28;20937;-84
2021/05/09 03:59:49;;;;;;;70.57;62.77;;;;;;;;;;5038313;28;20402;-84
2021/05/09 04:02:21;;;;;;;21.87;19.67;;;;;;;;;;5057796;28;20496;-84
2021/05/09 04:04:54;;;;;;;8.37;7.73;;;;;;;;;;5041432;28;20501;-84
2021/05/09 04:07:20;;;;;;;18.83;17.03;;;;;;;;;;5034169;28;20469;-84
2021/05/09 04:09:52;;;;;;;8.83;8.03;;;;;;;;;;5022586;28;20448;-84
2021/05/09 04:12:40;;;;;;;7.07;6.10;;;;;;;;;;5023206;28;20406;-84
2021/05/09 04:15:07;;;;;;;6.50;5.90;;;;;;;;;;5039886;28;20426;-84
2021/05/09 04:17:34;;;;;;;9.23;8.27;;;;;;;;;;5023456;28;20517;-85
2021/05/09 04:20:30;;;;;;;8.70;8.00;;;;;;;;;;5040603;28;20404;-85
2021/05/09 04:23:15;;;;;;;7.13;6.50;;;;;;;;;;5023686;28;20405;-85
2021/05/09 04:26:04;;;;;;;21.33;19.23;;;;;;;;;;5024543;28;20429;-85
2021/05/09 04:28:33;;;;;;;10.10;8.20;;;;;;;;;;5041123;28;20574;-85
2021/05/09 04:34:01;;;;;;;14.53;12.53;;;;;;;;;;5049078;28;20461;-86
2021/05/09 04:36:27;;;;;;;6.33;5.83;;;;;;;;;;5023845;28;20414;-85
2021/05/09 04:38:58;;;;;;;4.87;4.47;;;;;;;;;;5024139;28;20421;-85
2021/05/09 04:41:31;;;;;;;4.70;4.40;;;;;;;;;;5024011;28;20850;-85
2021/05/09 04:44:00;;;;;;;5.83;3.80;;;;;;;;;;5025300;28;20464;-84
2021/05/09 04:46:29;;;;;;;8.13;7.33;;;;;;;;;;5025674;28;20513;-85
2021/05/09 04:48:58;;;;;;;8.00;7.40;;;;;;;;;;5028966;28;20809;-84
2021/05/09 04:51:38;;;;;;;8.03;7.33;;;;;;;;;;5051216;28;20461;-85
2021/05/09 04:54:14;;;;;;;5.20;4.73;;;;;;;;;;5034980;28;20445;-84
2021/05/09 04:56:45;;;;;;;12.30;11.20;;;;;;;;;;5035394;28;20423;-84
2021/05/09 04:59:16;;;;;;;7.47;6.80;;;;;;;;;;5030322;28;20453;-86
2021/05/09 05:01:59;;;;;;;;;;;;;;;;;;;;;
2021/05/09 05:04:30;;;;;;;6.17;5.67;;;;;;;;;;5041713;28;20454;-85
2021/05/09 05:06:58;;;;;;;4.50;4.10;;;;;;;;;;5026114;28;20457;-85
2021/05/09 05:09:28;;;;;;;5.03;4.60;;;;;;;;;;5026020;28;20402;-84
2021/05/09 05:11:55;;;;;;;4.97;4.50;;;;;;;;;;5025548;28;20422;-85
2021/05/09 05:14:25;;;;;;;7.00;6.50;;;;;;;;;;5041503;28;20434;-85
2021/05/09 05:16:54;;;;;;;4.53;4.20;;;;;;;;;;5024142;28;20421;-85
2021/05/09 05:19:21;;;;;;;6.77;5.97;;;;;;;;;;5024527;28;20476;-84
2021/05/09 05:22:04;;;;;;;5.80;5.30;;;;;;;;;;5040929;28;20450;-85
2021/05/09 05:24:35;;;;;;;6.77;6.23;;;;;;;;;;5039744;28;20438;-84
2021/05/09 05:27:07;;;;;;;5.67;5.10;;;;;;;;;;5024016;28;20446;-86
2021/05/09 05:29:41;;;;;;;4.43;4.03;;;;;;;;;;5038539;28;20501;-86
2021/05/09 05:32:29;;;;;;;;;;;;;;;;;;;;;
2021/05/09 05:38:36;;;;;;;3.93;3.60;;;;;;;;;;5046441;28;20404;-84
2021/05/09 05:41:10;;;;;;;5.40;5.00;;;;;;;;;;5040298;28;20413;-84
2021/05/09 05:43:44;;;;;;;3.53;3.33;;;;;;;;;;5039820;28;20455;-84
2021/05/09 05:46:22;;;;;;;4.23;3.93;;;;;;;;;;5039924;28;20429;-85
2021/05/09 05:48:56;;;;;;;3.73;3.43;;;;;;;;;;5033009;28;20401;-85
2021/05/09 05:51:30;;;;;;;3.73;3.43;;;;;;;;;;5028615;28;20410;-85
2021/05/09 05:54:06;;;;;;;3.40;3.20;;;;;;;;;;5030613;28;20437;-85
2021/05/09 05:56:35;;;;;;;3.30;3.10;;;;;;;;;;5028693;28;20418;-86
2021/05/09 05:59:05;;;;;;;4.20;3.80;;;;;;;;;;5027523;28;20410;-86
2021/05/09 06:01:36;;;;;;;5.20;4.37;;;;;;;;;;5027957;28;20421;-86
2021/05/09 06:04:06;;;;;;;5.37;4.97;;;;;;;;;;5045971;28;20436;-85
2021/05/09 06:06:35;;;;;;;4.50;4.10;;;;;;;;;;5030783;28;20496;-85
2021/05/09 06:09:05;;;;;;;3.63;3.33;;;;;;;;;;5029839;28;20883;-86
2021/05/09 06:11:40;;;;;;;3.63;3.33;;;;;;;;;;5027669;28;20410;-85
2021/05/09 06:14:49;;;;;;;4.17;3.77;;;;;;;;;;5031438;28;20441;-85
2021/05/09 06:17:45;;;;;;;4.93;3.73;;;;;;;;;;5039887;28;20410;-86
2021/05/09 06:20:27;;;;;;;3.90;3.60;;;;;;;;;;5028147;28;20421;-86
2021/05/09 06:23:04;;;;;;;5.40;3.70;;;;;;;;;;5027432;28;20436;-86
2021/05/09 06:25:33;;;;;;;3.03;2.80;;;;;;;;;;5034527;23;20472;-86
2021/05/09 06:28:21;;;;;;;4.57;3.60;;;;;;;;;;5044738;28;20548;-86
2021/05/09 06:31:06;;;;;;;5.90;3.10;;;;;;;;;;5030148;28;20935;-85
2021/05/09 06:33:46;;;;;;;2.77;2.50;;;;;;;;;;5028609;28;20430;-86
2021/05/09 06:36:28;;;;;;;2.80;2.60;;;;;;;;;;5028488;28;20425;-86
2021/05/09 06:41:46;;;;;;;3.60;3.20;;;;;;;;;;3222859;26;20470;-85
2021/05/09 06:48:43;;;;;;;2.70;2.20;;;;;;;;;;5024365;28;20502;-86
2021/05/09 07:31:33;;;;;;;;;;;;;;;;;;;;;
2021/05/09 07:34:57;;;;;;;;;;;;;;;;;;;;;
2021/05/09 07:56:46;;;;;;;2.90;2.70;;;;;;;;;;5040893;28;20479;-87
2021/05/09 07:59:12;;;;;;;2.50;2.30;;;;;;;;;;5042901;28;20405;-86
2021/05/09 08:01:44;;;;;;;3.10;2.50;;;;;;;;;;5043009;28;20472;-87
2021/05/09 08:04:10;;;;;;;2.40;2.20;;;;;;;;;;5024437;28;20418;-87
2021/05/09 08:06:38;;;;;;;2.13;1.93;;;;;;;;;;5039905;28;20550;-87
2021/05/09 09:47:47;;;;;;;2.33;2.13;;;;;;;;;;5084707;28;20463;-88
2021/05/09 09:50:32;;;;;;;2.87;2.50;;;;;;;;;;5084811;28;20407;-87
2021/05/09 09:53:34;;;;;;;1.60;1.37;;;;;;;;;;5101591;28;20418;-88
2021/05/09 09:56:09;;;;;;;3.27;1.77;;;;;;;;;;5081851;28;20477;-86
2021/05/09 10:23:06;;;;;;;2.13;1.70;;;;;;;;;;5995929;22;20487;-88
2021/05/09 10:29:15;;;;;;;6.13;1.70;;;;;;;;;;5069412;28;20407;-87
2021/05/09 10:34:56;;;;;;;1.40;1.20;;;;;;;;;;5057693;28;20456;-87
2021/05/09 11:10:56;;;;;;;1.30;1.10;;;;;;;;;;5107502;22;20498;-87
2021/05/09 11:14:16;;;;;;;;;;;;;;;;;;;;;
2021/05/09 11:19:46;;;;;;;1.93;1.57;;;;;;;;;;5098823;28;20505;-88
2021/05/09 11:22:42;;;;;;;1.60;1.50;;;;;;;;;;5124916;28;20417;-86
2021/05/09 11:25:21;;;;;;;3.13;1.60;;;;;;;;;;5124705;28;20407;-87
2021/05/09 11:28:16;;;;;;;2.03;1.67;;;;;;;;;;5107659;28;20446;-88
2021/05/09 11:31:19;;;;;;;2.20;1.40;;;;;;;;;;5124137;28;20398;-86
2021/05/09 11:34:05;;;;;;;3.23;1.77;;;;;;;;;;5111882;28;20505;-86
2021/05/09 11:36:58;;;;;;;2.53;2.07;;;;;;;;;;5138450;28;20461;-86
2021/05/09 11:39:33;;;;;;;2.17;1.97;;;;;;;;;;5137927;28;20402;-88
2021/05/09 11:42:15;;;;;;;2.97;2.10;;;;;;;;;;5119717;28;20426;-87
2021/05/09 11:44:52;;;;;;;1.63;1.53;;;;;;;;;;5137722;28;20410;-86
2021/05/09 11:48:15;;;;;;;1.30;1.20;;;;;;;;;;5137909;28;20453;-86
2021/05/09 11:51:19;;;;;;;2.90;2.00;;;;;;;;;;5132884;28;20458;-85
2021/05/09 11:53:41;;;;;;;1.70;1.60;;;;;;;;;;5131205;28;20428;-87
2021/05/09 11:56:19;;;;;;;;;;;;;;;;;;;;;
2021/05/09 12:03:08;;;;;;;;;;;;;;;;;;;;;
2021/05/09 12:05:50;;;;;;;1.50;1.40;;;;;;;;;;5102508;28;20484;-86
2021/05/09 12:08:48;;;;;;;1.90;1.80;;;;;;;;;;5107005;28;20453;-87
2021/05/09 12:11:58;;;;;;;1.73;1.47;;;;;;;;;;5124148;28;20486;-86
2021/05/09 12:14:49;;;;;;;1.60;1.40;;;;;;;;;;5109880;28;20414;-86
2021/05/09 12:17:27;;;;;;;3.13;1.53;;;;;;;;;;5122765;28;20453;-86
2021/05/09 12:20:31;;;;;;;2.33;1.83;;;;;;;;;;5117121;28;20395;-84
2021/05/09 12:24:10;;;;;;;2.80;1.70;;;;;;;;;;5116276;28;20414;-84
2021/05/09 12:26:30;;;;;;;1.30;1.20;;;;;;;;;;5133045;28;20480;-86
2021/05/09 12:29:33;;;;;;;2.13;1.50;;;;;;;;;;5110786;28;20430;-87
2021/05/09 12:32:22;;;;;;;2.47;2.00;;;;;;;;;;5123561;28;20411;-87
2021/05/09 12:35:07;;;;;;;1.40;1.30;;;;;;;;;;5124001;28;20474;-85
2021/05/09 12:38:10;;;;;;;1.90;1.60;;;;;;;;;;5122623;28;20448;-87
2021/05/09 12:41:27;;;;;;;1.53;1.43;;;;;;;;;;5123448;28;20727;-87
2021/05/09 12:44:41;;;;;;;2.47;1.90;;;;;;;;;;5051862;28;20411;-86
2021/05/09 12:50:26;;;;;;;1.33;1.20;;;;;;;;;;5067075;28;20412;-87
2021/05/09 12:53:24;;;;;;;1.83;1.40;;;;;;;;;;5065591;28;20426;-87
2021/05/09 12:56:22;;;;;;;2.10;1.40;;;;;;;;;;5108231;28;20973;-84
2021/05/09 13:00:02;;;;;;;1.77;1.43;;;;;;;;;;5111179;28;20386;-87
2021/05/09 13:02:46;;;;;;;2.03;1.30;;;;;;;;;;5128665;28;20390;-86
2021/05/09 13:05:24;;;;;;;1.60;1.17;;;;;;;;;;5109783;28;20406;-87
2021/05/09 13:08:06;;;;;;;2.20;2.00;;;;;;;;;;5113850;28;20449;-86
2021/05/09 13:11:17;;;;;;;1.50;1.40;;;;;;;;;;5127297;28;20426;-87
2021/05/09 13:14:01;;;;;;;4.10;2.17;;;;;;;;;;5112828;28;20414;-86
2021/05/09 13:20:14;;;;;;;2.80;1.37;;;;;;;;;;5128154;28;20406;-86
2021/05/09 13:25:53;;;;;;;2.63;2.27;;;;;;;;;;5132339;28;20413;-86
2021/05/09 13:28:49;;;;;;;;;;;;;;;;;;;;;
2021/05/09 13:49:53;;;;;;;1.67;1.47;;;;;;;;;;4957073;29;20423;-87
2021/05/09 13:52:36;;;;;;;3.10;1.87;;;;;;;;;;4953940;29;20411;-85
2021/05/09 13:55:57;;;;;;;1.83;1.40;;;;;;;;;;4992092;28;20486;-85
2021/05/09 13:59:14;;;;;;;;;;;;;;;;;;;;;
2021/05/09 14:01:34;;;;;;;4.40;1.20;;;;;;;;;;4992637;28;20416;-85
2021/05/09 14:04:15;;;;;;;1.63;1.50;;;;;;;;;;4983472;28;20439;-86
2021/05/09 14:06:53;;;;;;;1.60;1.40;;;;;;;;;;4983525;28;20444;-87
2021/05/09 14:09:32;;;;;;;1.60;1.50;;;;;;;;;;4974679;28;20463;-87
2021/05/09 14:12:08;;;;;;;1.40;1.30;;;;;;;;;;4976178;28;20498;-87
2021/05/09 14:14:55;;;;;;;1.60;1.40;;;;;;;;;;5010203;28;20414;-87
2021/05/09 14:17:45;;;;;;;1.77;1.40;;;;;;;;;;5041976;28;20508;-86
2021/05/09 14:35:26;;;;;;;3.47;2.70;;;;;;;;;;5105595;28;20466;-87
2021/05/09 14:38:02;;;;;;;3.43;2.23;;;;;;;;;;5107730;28;20425;-86
2021/05/09 14:41:03;;;;;;;4.10;1.77;;;;;;;;;;5107588;28;20425;-85
2021/05/09 14:43:31;;;;;;;1.80;1.60;;;;;;;;;;5120993;27;20430;-88
2021/05/09 14:46:00;;;;;;;1.57;1.33;;;;;;;;;;5126514;27;20441;-87
2021/05/09 14:51:55;;;;;;;3.80;2.97;;;;;;;;;;5562592;22;20509;-87
2021/05/09 14:54:35;;;;;;;1.60;1.50;;;;;;;;;;5105693;28;20423;-87
2021/05/09 15:04:50;;;;;;;3.93;3.23;;;;;;;;;;5091437;28;20395;-86
2021/05/09 15:07:39;;;;;;;1.30;1.20;;;;;;;;;;5075112;28;20447;-86
2021/05/09 15:11:13;;;;;;;2.03;1.80;;;;;;;;;;5068634;28;20423;-87
2021/05/09 15:13:47;;;;;;;2.43;1.60;;;;;;;;;;5069962;28;20382;-86
2021/05/09 15:16:48;;;;;;;3.23;1.70;;;;;;;;;;5059420;28;20406;-84
2021/05/09 15:28:06;;;;;;;3.17;1.70;;;;;;;;;;5103726;28;20513;-87
2021/05/09 15:31:04;;;;;;;2.77;2.33;;;;;;;;;;5070932;28;20458;-86
2021/05/09 15:34:57;;;;;;;2.47;2.37;;;;;;;;;;5089713;28;20412;-85
2021/05/09 15:37:16;;;;;;;1.97;1.87;;;;;;;;;;5089437;28;20463;-86
2021/05/09 15:44:06;;;;;;;2.00;1.50;;;;;;;;;;4989199;28;20932;-87
2021/05/09 15:50:38;;;;;;;;;;;;;;;;;;;;;
2021/05/09 16:00:37;;;;;;;2.27;1.63;;;;;;;;;;4907568;29;20412;-87
2021/05/09 16:16:07;;;;;;;;;;;;;;;;;;;;;
2021/05/09 16:26:08;;;;;;;5.13;3.47;;;;;;;;;;5047918;28;20420;-87
2021/05/09 16:46:18;;;;;;;3.30;2.87;;;;;;;;;;5025861;28;20414;-87
2021/05/09 16:52:36;;;;;;;3.83;2.60;;;;;;;;;;5047847;28;20483;-86
2021/05/09 17:04:42;;;;;;;2.90;2.70;;;;;;;;;;5032017;28;20390;-87
2021/05/09 17:10:19;;;;;;;5.10;4.10;;;;;;;;;;4979069;28;20871;-87
2021/05/09 17:13:18;;;;;;;2.87;2.50;;;;;;;;;;4989863;28;20438;-87
2021/05/09 17:18:38;;;;;;;2.73;2.43;;;;;;;;;;4950497;29;20437;-86
2021/05/09 17:25:41;;;;;;;2.53;2.30;;;;;;;;;;4950270;29;20513;-86
2021/05/09 17:28:19;;;;;;;;;;;;;;;;;;;;;
2021/05/09 17:32:02;;;;;;;2.10;1.83;;;;;;;;;;4964816;29;20930;-87
2021/05/09 17:34:50;;;;;;;6.77;3.67;;;;;;;;;;4965548;28;20543;-87
2021/05/09 17:37:28;;;;;;;7.07;3.27;;;;;;;;;;4967082;28;20449;-88
2021/05/09 17:40:13;;;;;;;10.87;8.77;;;;;;;;;;4972111;28;20458;-88
2021/05/09 17:43:33;;;;;;;;;;;;;;;;;;;;;
2021/05/09 17:46:54;;;;;;;;;;;;;;;;;;;;;
2021/05/09 17:49:57;;;;;;;3.10;2.90;;;;;;;;;;5026466;28;20419;-87
2021/05/09 17:53:01;;;;;;;3.30;3.00;;;;;;;;;;4970466;29;20402;-87
2021/05/09 17:55:42;;;;;;;9.27;8.40;;;;;;;;;;4967669;28;20413;-88
2021/05/09 17:58:30;;;;;;;7.13;4.30;;;;;;;;;;4967480;28;20523;-87
2021/05/09 18:02:08;;;;;;;4.90;4.30;;;;;;;;;;4972162;28;20501;-88
2021/05/09 18:05:07;;;;;;;6.23;3.43;;;;;;;;;;4971057;29;20424;-88
2021/05/09 18:28:02;;;;;;;;;;;;;;;;;;;;;
2021/05/09 18:56:58;;;;;;;5.70;4.87;;;;;;;;;;5905967;22;21196;-85
2021/05/09 18:59:25;;;;;;;4.50;4.03;;;;;;;;;;5045140;28;20871;-84
2021/05/09 19:01:51;;;;;;;4.60;3.70;;;;;;;;;;5064514;28;20432;-85
2021/05/09 19:04:17;;;;;;;9.13;4.30;;;;;;;;;;5071434;28;20497;-85
2021/05/09 19:06:43;;;;;;;11.80;6.47;;;;;;;;;;5078773;28;20513;-85
2021/05/09 19:09:13;;;;;;;4.93;4.53;;;;;;;;;;5077813;28;20429;-86
2021/05/09 19:44:36;;;;;;;7.50;6.80;;;;;;;;;;5089128;26;20491;-88
2021/05/09 19:47:47;;;;;;;6.90;4.77;;;;;;;;;;5030957;28;20450;-88
2021/05/09 19:50:36;;;;;;;4.47;4.07;;;;;;;;;;5029341;28;20413;-88
2021/05/09 19:53:15;;;;;;;4.13;3.63;;;;;;;;;;5086768;28;20410;-87
2021/05/09 20:34:56;;;;;;;5.40;4.90;;;;;;;;;;4882017;22;20770;-86
2021/05/09 20:40:53;;;;;;;6.53;5.90;;;;;;;;;;5186131;22;20514;-87
2021/05/09 21:24:57;;;;;;;;;;;;;;;;;;;;;
2021/05/09 21:28:02;;;;;;;5.93;5.30;;;;;;;;;;5027568;28;20497;-88
2021/05/09 21:31:08;;;;;;;4.77;4.33;;;;;;;;;;5011603;28;20458;-88
2021/05/09 22:36:40;;;;;;;3.93;3.67;;;;;;;;;;5070925;28;20940;-86
2021/05/09 22:39:17;;;;;;;3.30;3.10;;;;;;;;;;5068450;28;20471;-86
2021/05/09 22:41:58;;;;;;;5.10;3.17;;;;;;;;;;5116777;28;20486;-85
2021/05/09 23:12:12;;;;;;;7.30;4.00;;;;;;;;;;5099897;22;20857;-86
2021/05/09 23:15:13;;;;;;;3.57;3.27;;;;;;;;;;5024815;28;20427;-86
2021/05/09 23:18:17;;;;;;;4.73;3.13;;;;;;;;;;5031468;28;20411;-86
2021/05/09 23:28:31;;;;;;;;;;;;;;;;;;;;;
2021/05/09 23:31:09;;;;;;;4.30;3.97;;;;;;;;;;5021382;28;21007;-85
2021/05/09 23:47:58;;;;;;;3.13;2.73;;;;;;;;;;5003546;28;20496;-86
2021/05/09 23:51:03;;;;;;;;;;;;;;;;;;;;;
2021/05/09 23:57:34;;;;;;;5.60;3.30;;;;;;;;;;5050953;28;20425;-85
